Williamstown, Indiana
Current Conditions -  °F | °C
As of 11:55 AM on Sunday 23 Nov 2014 (Local Time) from KBAK Reporting Station
Light Rain Light Rain  
Wind Chill: 55°   Ceiling: 3500
Heat Index: 55°   Visibility: 5mi
Dew Point: 48°   Wind: 14mph
Humidity: 77%   Direction: 170°S
Pressure: 29.79"   Gusts: NA
Location:  39.3206°N, 85.4768°W
Report Text: KBAK 231655Z 17012KT 5SM -RABR SCT024 BKN035 OVC047 13/09 A2979
Loading
Personal Weather Stations






























Interactive Weather Map New forecast layout! Learn more

10-Day Weather Forecast

Advertisements
Track Severe Weather on mobile